Time;durP1;ratioP1;P1;durP2;ratioP2;P2;SDS_P1;SDS_P2;PMS_P1;PMS_P2;Temp;Humidity;BMP_temperature;BMP_pressure;BME280_temperature;BME280_humidity;BME280_pressure;Samples;Min_cycle;Max_cycle;Signal;HPM_P1;HPM_P2
2023/04/12 00:01:56;;;;;;;1.00;0.95;;;13.40;99.90;;;;;;5022081;28;20418;-47
2023/04/12 00:04:27;;;;;;;1.80;1.15;;;13.40;99.90;;;;;;5034701;28;20030;-46
2023/04/12 00:06:53;;;;;;;1.00;0.70;;;13.40;99.90;;;;;;5031995;28;20041;-47
2023/04/12 00:09:19;;;;;;;1.58;1.23;;;13.40;99.90;;;;;;5035444;28;20087;-48
2023/04/12 00:11:45;;;;;;;1.98;1.20;;;13.40;99.90;;;;;;5041404;28;20052;-47
2023/04/12 00:14:11;;;;;;;1.50;1.15;;;13.40;99.90;;;;;;5034821;28;20080;-47
2023/04/12 00:16:37;;;;;;;1.58;1.30;;;13.40;99.90;;;;;;5041271;28;20037;-46
2023/04/12 00:19:05;;;;;;;3.25;1.30;;;13.40;99.90;;;;;;5035302;28;20037;-47
2023/04/12 00:21:31;;;;;;;5.55;3.33;;;13.40;99.90;;;;;;5047440;28;20040;-46
2023/04/12 00:23:57;;;;;;;1.30;0.93;;;13.40;99.90;;;;;;5038733;28;20025;-46
2023/04/12 00:26:24;;;;;;;1.80;1.20;;;13.40;99.90;;;;;;5040351;28;20034;-47
2023/04/12 00:28:50;;;;;;;1.25;0.90;;;13.40;99.90;;;;;;5034884;28;20083;-47
2023/04/12 00:31:15;;;;;;;1.85;1.08;;;13.40;99.90;;;;;;5058049;28;20441;-47
2023/04/12 00:33:41;;;;;;;2.85;2.20;;;13.40;99.90;;;;;;5037750;28;20044;-46
2023/04/12 00:36:07;;;;;;;1.35;1.05;;;13.50;99.90;;;;;;5020823;28;20044;-46
2023/04/12 00:38:33;;;;;;;1.20;0.88;;;13.50;99.90;;;;;;5021028;28;20091;-46
2023/04/12 00:40:59;;;;;;;1.92;1.48;;;13.50;99.90;;;;;;5039594;28;20064;-46
2023/04/12 00:43:26;;;;;;;1.77;1.10;;;13.50;99.90;;;;;;5031476;28;20038;-46
2023/04/12 00:45:55;;;;;;;1.00;0.90;;;13.40;99.90;;;;;;5064456;28;20503;-46
2023/04/12 00:48:22;;;;;;;1.73;1.48;;;13.30;99.90;;;;;;5036487;28;20037;-47
2023/04/12 00:50:48;;;;;;;2.10;1.27;;;13.30;99.90;;;;;;5029841;28;20026;-47
2023/04/12 00:53:16;;;;;;;1.45;1.00;;;13.40;99.90;;;;;;5030851;28;20709;-47
2023/04/12 00:55:45;;;;;;;2.22;1.10;;;13.30;99.90;;;;;;5035694;28;20021;-46
2023/04/12 00:58:13;;;;;;;1.13;0.80;;;13.40;99.90;;;;;;5025063;28;20381;-46
2023/04/12 01:00:39;;;;;;;1.45;1.08;;;13.40;99.90;;;;;;5039540;28;20032;-47
2023/04/12 01:03:07;;;;;;;2.15;1.15;;;13.30;99.90;;;;;;5036882;28;20124;-46
2023/04/12 01:05:50;;;;;;;5.00;1.17;;;13.30;99.90;;;;;;5040909;28;20053;-47
2023/04/12 01:08:44;;;;;;;0.80;0.80;;;13.20;99.90;;;;;;5042204;28;20540;-46
2023/04/12 01:11:19;;;;;;;1.30;0.73;;;13.20;99.90;;;;;;5038608;28;20040;-47
2023/04/12 01:13:54;;;;;;;4.22;0.90;;;13.20;99.90;;;;;;5047086;28;20397;-47
2023/04/12 01:16:31;;;;;;;2.58;1.13;;;13.10;99.90;;;;;;5043204;28;20053;-46
2023/04/12 01:19:03;;;;;;;1.80;1.20;;;13.10;99.90;;;;;;5044628;28;20396;-46
2023/04/12 01:21:50;;;;;;;1.25;1.02;;;13.00;99.90;;;;;;5037285;28;20381;-47
2023/04/12 01:24:22;;;;;;;0.80;0.80;;;13.00;99.90;;;;;;5041222;28;20150;-45
2023/04/12 01:26:48;;;;;;;1.08;0.88;;;12.90;99.90;;;;;;5037494;28;20033;-46
2023/04/12 01:29:16;;;;;;;0.95;0.85;;;12.90;99.90;;;;;;5041024;28;20071;-47
2023/04/12 01:32:03;;;;;;;0.82;0.73;;;12.80;99.90;;;;;;5045887;28;20025;-47
2023/04/12 01:34:32;;;;;;;1.00;1.00;;;12.70;99.90;;;;;;5038426;28;20073;-46
2023/04/12 01:37:01;;;;;;;1.00;0.75;;;12.70;99.90;;;;;;5047541;28;20033;-46
2023/04/12 01:39:28;;;;;;;1.17;0.60;;;;;;;;;;5039444;28;20050;-46
2023/04/12 01:41:53;;;;;;;0.77;0.77;;;12.50;99.90;;;;;;5036720;28;20025;-46
2023/04/12 01:44:19;;;;;;;1.38;0.80;;;12.50;99.90;;;;;;5039202;28;20029;-47
2023/04/12 01:46:46;;;;;;;1.52;1.08;;;12.40;99.90;;;;;;5025008;28;20127;-46
2023/04/12 01:49:14;;;;;;;0.60;0.60;;;12.30;99.90;;;;;;5039661;28;20040;-46
2023/04/12 01:51:41;;;;;;;1.48;0.88;;;12.30;99.90;;;;;;5048791;28;20033;-46
2023/04/12 01:54:10;;;;;;;0.85;0.75;;;12.30;99.90;;;;;;5039124;28;20368;-46
2023/04/12 01:56:43;;;;;;;1.17;0.90;;;12.30;99.90;;;;;;5074408;28;20032;-46
2023/04/12 01:59:12;;;;;;;0.90;0.70;;;12.30;99.90;;;;;;5037029;28;20119;-46
2023/04/12 02:01:38;;;;;;;0.88;0.77;;;12.20;99.90;;;;;;5038099;28;20102;-46
2023/04/12 02:04:07;;;;;;;1.30;1.02;;;12.20;99.90;;;;;;5021870;28;20497;-46
2023/04/12 02:06:33;;;;;;;2.55;1.17;;;12.10;99.90;;;;;;5039264;28;20082;-46
2023/04/12 02:09:06;;;;;;;1.17;0.68;;;12.10;99.90;;;;;;5034547;28;20063;-45
2023/04/12 02:11:32;;;;;;;1.35;0.95;;;12.20;99.90;;;;;;5043567;28;20029;-46
2023/04/12 02:13:58;;;;;;;1.05;0.90;;;12.20;99.90;;;;;;5032134;28;20095;-46
2023/04/12 02:16:24;;;;;;;1.15;0.73;;;12.10;99.90;;;;;;5041088;28;20033;-46
2023/04/12 02:18:50;;;;;;;1.50;1.13;;;12.00;99.90;;;;;;5033210;28;20074;-47
2023/04/12 02:21:16;;;;;;;0.80;0.80;;;11.90;99.90;;;;;;5029129;28;20053;-47
2023/04/12 02:23:45;;;;;;;2.00;1.40;;;11.80;99.90;;;;;;5032238;28;20040;-47
2023/04/12 02:26:11;;;;;;;0.70;0.70;;;11.90;99.90;;;;;;5033054;28;20049;-46
2023/04/12 02:28:38;;;;;;;0.85;0.85;;;12.00;99.90;;;;;;5045521;28;20397;-46
2023/04/12 02:31:07;;;;;;;1.35;1.05;;;12.10;99.90;;;;;;5020604;28;20046;-46
2023/04/12 02:33:33;;;;;;;1.85;1.48;;;12.10;99.90;;;;;;5059953;28;20049;-47
2023/04/12 02:36:01;;;;;;;1.85;1.13;;;12.10;99.90;;;;;;5002878;28;20033;-46
2023/04/12 02:38:28;;;;;;;0.98;0.75;;;12.10;99.90;;;;;;5048489;28;20033;-46
2023/04/12 02:40:54;;;;;;;0.63;0.63;;;12.10;99.90;;;;;;5038476;28;20465;-46
2023/04/12 02:43:20;;;;;;;0.88;0.80;;;11.90;99.90;;;;;;5041148;28;20366;-46
2023/04/12 02:45:47;;;;;;;1.70;0.93;;;11.90;99.90;;;;;;5042699;28;20036;-46
2023/04/12 02:48:12;;;;;;;1.02;0.60;;;11.80;99.90;;;;;;5071113;28;20037;-46
2023/04/12 02:50:38;;;;;;;0.75;0.75;;;11.70;99.90;;;;;;5043735;28;20378;-46
2023/04/12 02:53:04;;;;;;;0.73;0.73;;;11.70;99.90;;;;;;5036633;28;20048;-45
2023/04/12 02:55:30;;;;;;;0.85;0.52;;;11.70;99.90;;;;;;5045146;28;20056;-45
2023/04/12 02:57:56;;;;;;;0.50;0.50;;;11.70;99.90;;;;;;5041995;28;20025;-46
2023/04/12 03:00:22;;;;;;;0.95;0.82;;;11.70;99.90;;;;;;5038923;28;20440;-46
2023/04/12 03:02:50;;;;;;;0.65;0.50;;;11.70;99.90;;;;;;5068234;28;20037;-47
2023/04/12 03:05:16;;;;;;;0.52;0.52;;;11.70;99.90;;;;;;5037483;28;20045;-46
2023/04/12 03:07:42;;;;;;;1.02;0.75;;;11.70;99.90;;;;;;5039778;28;20029;-47
2023/04/12 03:10:10;;;;;;;0.80;0.70;;;11.70;99.90;;;;;;5033670;28;20034;-46
2023/04/12 03:12:35;;;;;;;2.83;0.63;;;11.70;99.90;;;;;;5037718;28;20046;-47
2023/04/12 03:15:02;;;;;;;1.48;0.75;;;11.70;99.90;;;;;;5039936;28;20092;-45
2023/04/12 03:17:27;;;;;;;1.30;0.80;;;11.70;99.90;;;;;;5030969;28;20083;-45
2023/04/12 03:19:53;;;;;;;0.82;0.75;;;11.60;99.90;;;;;;5040376;28;20490;-46
2023/04/12 03:22:19;;;;;;;1.13;0.80;;;11.50;99.90;;;;;;5025124;28;20065;-47
2023/04/12 03:24:45;;;;;;;1.08;0.55;;;11.40;99.90;;;;;;5036089;28;20081;-47
2023/04/12 03:27:11;;;;;;;0.30;0.30;;;11.40;99.90;;;;;;5034444;28;20048;-47
2023/04/12 03:29:37;;;;;;;0.50;0.50;;;11.30;99.90;;;;;;5035253;28;20056;-46
2023/04/12 03:32:03;;;;;;;0.75;0.73;;;11.30;99.90;;;;;;5031422;28;20041;-45
2023/04/12 03:34:31;;;;;;;2.13;0.70;;;11.30;99.90;;;;;;5016541;28;20190;-48
2023/04/12 03:36:58;;;;;;;0.52;0.52;;;11.30;99.90;;;;;;5030049;28;20398;-46
2023/04/12 03:39:23;;;;;;;1.27;1.00;;;11.20;99.90;;;;;;5034682;28;20066;-47
2023/04/12 03:41:51;;;;;;;0.85;0.85;;;11.20;99.90;;;;;;5042439;28;20060;-48
2023/04/12 03:44:17;;;;;;;0.68;0.68;;;11.10;99.90;;;;;;5033348;28;20042;-46
2023/04/12 03:46:43;;;;;;;0.70;0.70;;;11.20;99.90;;;;;;5034108;28;20044;-45
2023/04/12 03:49:10;;;;;;;0.40;0.40;;;11.10;99.90;;;;;;5034206;28;20445;-46
2023/04/12 03:51:41;;;;;;;0.30;0.30;;;11.00;99.90;;;;;;5034285;28;20081;-48
2023/04/12 03:54:07;;;;;;;0.27;0.27;;;10.70;99.90;;;;;;5031233;28;20046;-48
2023/04/12 03:56:33;;;;;;;0.47;0.47;;;10.50;99.90;;;;;;5039377;28;20025;-48
2023/04/12 03:58:59;;;;;;;0.20;0.20;;;;;;;;;;5034612;28;20057;-48
2023/04/12 04:01:25;;;;;;;0.20;0.20;;;10.40;99.90;;;;;;5038162;28;20045;-48
2023/04/12 04:03:51;;;;;;;0.40;0.40;;;10.30;99.90;;;;;;5035131;28;20029;-49
2023/04/12 04:06:17;;;;;;;2.42;0.50;;;10.30;99.90;;;;;;5014429;28;20124;-46
2023/04/12 04:08:43;;;;;;;0.20;0.20;;;10.30;99.90;;;;;;5037126;28;20095;-45
2023/04/12 04:11:11;;;;;;;0.30;0.30;;;10.30;99.90;;;;;;5038137;28;20382;-45
2023/04/12 04:13:37;;;;;;;0.28;0.28;;;10.30;99.90;;;;;;5035666;28;20447;-46
2023/04/12 04:16:05;;;;;;;0.25;0.25;;;10.30;99.90;;;;;;5049658;28;20049;-45
2023/04/12 04:18:31;;;;;;;1.45;0.30;;;10.30;99.90;;;;;;5046271;28;20048;-45
2023/04/12 04:20:57;;;;;;;0.20;0.20;;;10.30;99.90;;;;;;5032261;28;20071;-45
2023/04/12 04:23:23;;;;;;;0.68;0.50;;;10.30;99.90;;;;;;5039067;28;20087;-46
2023/04/12 04:25:52;;;;;;;0.30;0.30;;;10.40;99.90;;;;;;5038834;28;20045;-46
2023/04/12 04:28:18;;;;;;;0.77;0.70;;;10.30;99.90;;;;;;5036541;28;20045;-45
2023/04/12 04:30:45;;;;;;;0.95;0.55;;;10.30;99.90;;;;;;5047174;28;20102;-45
2023/04/12 04:33:14;;;;;;;0.63;0.63;;;10.30;99.90;;;;;;5027973;28;20473;-45
2023/04/12 04:35:43;;;;;;;0.60;0.60;;;10.40;99.90;;;;;;5035451;28;20091;-46
2023/04/12 04:38:09;;;;;;;0.52;0.52;;;10.50;99.90;;;;;;5036680;28;20086;-45
2023/04/12 04:40:38;;;;;;;0.50;0.50;;;10.50;99.90;;;;;;5050872;28;20041;-45
2023/04/12 04:43:04;;;;;;;0.63;0.55;;;10.50;99.90;;;;;;5036909;28;20087;-45
2023/04/12 04:45:29;;;;;;;1.08;0.80;;;10.50;99.90;;;;;;5068312;28;20052;-46
2023/04/12 04:47:55;;;;;;;0.47;0.47;;;10.50;99.90;;;;;;5033213;28;20021;-45
2023/04/12 04:50:23;;;;;;;0.52;0.52;;;10.50;99.90;;;;;;5028939;28;20030;-45
2023/04/12 04:52:52;;;;;;;0.63;0.63;;;10.50;99.90;;;;;;5039263;28;20025;-46
2023/04/12 04:55:20;;;;;;;0.40;0.40;;;10.50;99.90;;;;;;5037765;28;20029;-45
2023/04/12 04:57:46;;;;;;;0.30;0.30;;;;;;;;;;5034288;28;20037;-46
2023/04/12 05:00:12;;;;;;;0.30;0.30;;;10.40;99.90;;;;;;5033029;28;20811;-46
2023/04/12 05:02:42;;;;;;;0.68;0.60;;;10.30;99.90;;;;;;5016007;28;20496;-46
2023/04/12 05:05:09;;;;;;;1.23;0.68;;;10.50;99.90;;;;;;5037513;28;20493;-45
2023/04/12 05:07:37;;;;;;;2.15;0.88;;;10.40;99.90;;;;;;5063193;28;20064;-45
2023/04/12 05:10:04;;;;;;;0.25;0.20;;;10.40;99.90;;;;;;5033569;28;20037;-45
2023/04/12 05:12:30;;;;;;;0.30;0.30;;;10.50;99.90;;;;;;5058729;28;20494;-46
2023/04/12 05:14:56;;;;;;;0.38;0.38;;;10.60;99.90;;;;;;5036036;28;20049;-46
2023/04/12 05:17:21;;;;;;;0.20;0.20;;;10.60;99.90;;;;;;5037696;28;20037;-46
2023/04/12 05:19:47;;;;;;;0.20;0.20;;;10.60;99.90;;;;;;5029758;28;20339;-45
2023/04/12 05:22:13;;;;;;;0.88;0.60;;;10.70;99.90;;;;;;5029798;28;20033;-47
2023/04/12 05:24:39;;;;;;;0.30;0.30;;;10.70;99.90;;;;;;5033712;28;20033;-46
2023/04/12 05:27:05;;;;;;;0.70;0.50;;;10.70;99.90;;;;;;5037231;28;20049;-45
2023/04/12 05:29:31;;;;;;;0.20;0.20;;;10.80;99.90;;;;;;5033194;28;20037;-46
2023/04/12 05:31:58;;;;;;;0.50;0.50;;;10.80;99.90;;;;;;5034956;28;20425;-46
2023/04/12 05:34:23;;;;;;;0.77;0.40;;;10.90;99.90;;;;;;5033256;28;20084;-46
2023/04/12 05:36:49;;;;;;;0.65;0.45;;;10.90;99.90;;;;;;5030503;28;20449;-44
2023/04/12 05:39:15;;;;;;;0.55;0.40;;;11.10;99.90;;;;;;5029806;28;20061;-45
2023/04/12 05:41:41;;;;;;;0.30;0.30;;;11.10;99.90;;;;;;5061068;28;20405;-44
2023/04/12 05:44:06;;;;;;;17.02;4.28;;;11.10;99.90;;;;;;5048557;28;20259;-46
2023/04/12 05:46:32;;;;;;;0.50;0.50;;;11.20;99.90;;;;;;5045728;28;20028;-45
2023/04/12 05:48:58;;;;;;;2.47;1.05;;;11.10;99.90;;;;;;5026481;28;20037;-45
2023/04/12 05:51:24;;;;;;;0.60;0.60;;;11.10;99.90;;;;;;5037362;28;20065;-46
2023/04/12 05:53:50;;;;;;;8.18;3.05;;;11.20;99.90;;;;;;5031198;28;20037;-46
2023/04/12 05:56:16;;;;;;;0.30;0.30;;;11.30;99.90;;;;;;5038749;28;20045;-47
2023/04/12 05:58:42;;;;;;;0.70;0.70;;;11.30;99.90;;;;;;5028147;28;20021;-45
2023/04/12 06:01:07;;;;;;;0.50;0.50;;;11.40;99.90;;;;;;5030593;28;20036;-46
2023/04/12 06:03:33;;;;;;;0.28;0.28;;;11.30;99.90;;;;;;5038986;28;21022;-45
2023/04/12 06:06:01;;;;;;;1.48;1.02;;;11.40;99.90;;;;;;5039052;28;20028;-45
2023/04/12 06:08:28;;;;;;;0.40;0.40;;;11.40;99.90;;;;;;5026570;28;20072;-46
2023/04/12 06:10:54;;;;;;;0.47;0.47;;;11.50;99.90;;;;;;5036550;28;20116;-45
2023/04/12 06:13:20;;;;;;;0.82;0.68;;;11.50;99.90;;;;;;5044377;28;20439;-45
2023/04/12 06:15:45;;;;;;;0.43;0.40;;;11.50;99.90;;;;;;5035585;28;20103;-47
2023/04/12 06:18:11;;;;;;;1.15;0.70;;;11.60;99.90;;;;;;5040492;28;20599;-47
2023/04/12 06:20:40;;;;;;;0.30;0.30;;;11.70;99.90;;;;;;5031311;28;20021;-46
2023/04/12 06:23:06;;;;;;;0.35;0.35;;;11.60;99.90;;;;;;5040968;28;20108;-42
2023/04/12 06:25:33;;;;;;;0.50;0.50;;;11.50;99.90;;;;;;5034307;28;20133;-44
2023/04/12 06:27:58;;;;;;;0.55;0.50;;;11.50;99.90;;;;;;5042051;28;20025;-44
2023/04/12 06:30:24;;;;;;;0.82;0.43;;;11.50;99.90;;;;;;5031627;28;20049;-49
2023/04/12 06:32:50;;;;;;;0.73;0.47;;;11.60;99.90;;;;;;5031936;28;20064;-48
2023/04/12 06:35:16;;;;;;;0.40;0.40;;;11.70;99.90;;;;;;5041422;28;20489;-47
2023/04/12 06:37:41;;;;;;;0.30;0.30;;;11.60;99.90;;;;;;5028337;28;20097;-54
2023/04/12 06:40:08;;;;;;;0.20;0.20;;;11.80;99.90;;;;;;5036489;28;20061;-50
2023/04/12 06:42:33;;;;;;;0.20;0.20;;;11.70;99.90;;;;;;5043873;28;20021;-50
2023/04/12 06:44:59;;;;;;;0.47;0.32;;;11.80;99.90;;;;;;5037084;28;20047;-47
2023/04/12 06:47:25;;;;;;;0.35;0.35;;;11.80;99.90;;;;;;5035267;28;20025;-49
2023/04/12 06:49:54;;;;;;;0.40;0.40;;;11.90;99.90;;;;;;5037557;28;20036;-48
2023/04/12 06:52:23;;;;;;;0.43;0.43;;;12.00;99.90;;;;;;5041078;28;20401;-49
2023/04/12 06:54:49;;;;;;;0.32;0.32;;;12.00;99.90;;;;;;5037756;28;20050;-49
2023/04/12 06:57:14;;;;;;;0.47;0.45;;;12.20;99.90;;;;;;5044209;28;20116;-49
2023/04/12 06:59:40;;;;;;;0.50;0.50;;;12.20;99.90;;;;;;5042043;28;20170;-49
2023/04/12 07:02:06;;;;;;;0.40;0.40;;;12.30;99.90;;;;;;5046680;28;20037;-49
2023/04/12 07:04:32;;;;;;;0.40;0.40;;;12.60;99.90;;;;;;5034947;28;20449;-49
2023/04/12 07:06:58;;;;;;;0.38;0.38;;;12.60;99.90;;;;;;5037907;28;20405;-49
2023/04/12 07:09:24;;;;;;;0.40;0.40;;;12.50;99.90;;;;;;5073678;28;20037;-49
2023/04/12 07:11:49;;;;;;;0.43;0.43;;;12.50;99.90;;;;;;5029870;28;20088;-49
2023/04/12 07:14:15;;;;;;;0.68;0.68;;;12.50;99.90;;;;;;5071492;28;20060;-49
2023/04/12 07:16:42;;;;;;;0.20;0.20;;;12.60;99.90;;;;;;5041472;28;20029;-49
2023/04/12 07:19:08;;;;;;;0.57;0.50;;;12.60;99.90;;;;;;5035745;28;20393;-49
2023/04/12 07:21:33;;;;;;;0.38;0.38;;;12.70;99.90;;;;;;5035136;28;20036;-48
2023/04/12 07:24:00;;;;;;;0.50;0.50;;;;;;;;;;5033220;28;20064;-49
2023/04/12 07:26:26;;;;;;;0.20;0.20;;;12.70;99.90;;;;;;5033034;28;20061;-50
2023/04/12 07:28:52;;;;;;;0.20;0.20;;;12.90;99.90;;;;;;5019384;28;20061;-47
2023/04/12 07:31:17;;;;;;;0.57;0.57;;;12.70;99.90;;;;;;5033128;28;20060;-48
2023/04/12 07:33:43;;;;;;;0.25;0.25;;;12.90;99.90;;;;;;5041080;28;20037;-47
2023/04/12 07:36:10;;;;;;;0.35;0.35;;;13.10;99.90;;;;;;5027873;28;20037;-49
2023/04/12 07:38:35;;;;;;;0.73;0.73;;;13.10;99.90;;;;;;5035575;28;20072;-50
2023/04/12 07:41:01;;;;;;;0.63;0.43;;;13.10;99.90;;;;;;5038069;28;20065;-49
2023/04/12 07:43:27;;;;;;;0.50;0.50;;;13.20;99.90;;;;;;5042362;28;20040;-49
2023/04/12 07:45:56;;;;;;;0.35;0.35;;;;;;;;;;5041787;28;20033;-49
2023/04/12 07:48:22;;;;;;;0.40;0.40;;;13.50;99.90;;;;;;5005984;28;20076;-49
2023/04/12 07:50:47;;;;;;;0.32;0.32;;;13.40;99.90;;;;;;5031705;28;20509;-49
2023/04/12 07:53:25;;;;;;;0.20;0.20;;;13.70;99.90;;;;;;5032452;28;20029;-49
2023/04/12 07:55:51;;;;;;;0.20;0.20;;;13.60;99.90;;;;;;5035722;28;20043;-50
2023/04/12 07:58:17;;;;;;;0.88;0.40;;;13.70;99.90;;;;;;5035482;28;20033;-50
2023/04/12 08:00:44;;;;;;;1.02;0.30;;;;;;;;;;5038486;28;20033;-50
2023/04/12 08:03:12;;;;;;;0.70;0.50;;;14.00;99.90;;;;;;5027274;28;20071;-49
2023/04/12 08:05:38;;;;;;;2.72;1.08;;;;;;;;;;5033425;28;20025;-49
2023/04/12 08:08:05;;;;;;;0.38;0.38;;;14.50;99.90;;;;;;5025423;28;20470;-49
2023/04/12 08:10:31;;;;;;;0.20;0.20;;;14.10;99.90;;;;;;5023000;28;20076;-49
2023/04/12 08:12:57;;;;;;;0.50;0.47;;;14.20;99.90;;;;;;5058218;28;20033;-48
2023/04/12 08:15:23;;;;;;;0.52;0.52;;;;;;;;;;5037535;28;20033;-49
2023/04/12 08:17:49;;;;;;;0.75;0.63;;;14.60;99.90;;;;;;5025013;28;20029;-50
2023/04/12 08:20:15;;;;;;;0.22;0.22;;;;;;;;;;5032297;28;20041;-49
2023/04/12 08:22:42;;;;;;;0.47;0.47;;;14.70;99.90;;;;;;5039661;28;20044;-49
2023/04/12 08:25:09;;;;;;;0.45;0.45;;;15.00;99.90;;;;;;5037220;28;20138;-49
2023/04/12 08:27:35;;;;;;;0.60;0.60;;;14.90;99.90;;;;;;5038095;28;20049;-49
2023/04/12 08:30:01;;;;;;;0.40;0.40;;;14.80;99.90;;;;;;5038129;28;20029;-49
2023/04/12 08:32:26;;;;;;;0.60;0.60;;;15.00;99.90;;;;;;5029268;28;20034;-49
2023/04/12 08:34:52;;;;;;;0.30;0.30;;;14.90;99.90;;;;;;5039672;28;20047;-49
2023/04/12 08:37:18;;;;;;;0.52;0.30;;;15.20;99.90;;;;;;5002656;28;20130;-49
2023/04/12 08:39:43;;;;;;;0.38;0.38;;;15.40;99.90;;;;;;5033043;28;20133;-50
2023/04/12 08:42:10;;;;;;;0.63;0.55;;;;;;;;;;5032397;28;20039;-51
2023/04/12 08:44:38;;;;;;;0.98;0.20;;;15.80;99.90;;;;;;5042020;28;20025;-49
2023/04/12 08:47:06;;;;;;;0.30;0.30;;;15.80;99.90;;;;;;5032097;28;20044;-50
2023/04/12 08:49:33;;;;;;;0.30;0.30;;;15.60;99.90;;;;;;5056322;28;20049;-50
2023/04/12 08:52:01;;;;;;;0.38;0.38;;;15.70;99.90;;;;;;5038874;28;20030;-50
2023/04/12 08:54:27;;;;;;;0.30;0.30;;;15.80;99.90;;;;;;5060020;28;20251;-50
2023/04/12 08:56:58;;;;;;;0.20;0.20;;;;;;;;;;5030318;28;20033;-51
2023/04/12 08:59:29;;;;;;;0.50;0.50;;;;;;;;;;5014457;28;20478;-49
2023/04/12 09:01:55;;;;;;;0.28;0.28;;;;;;;;;;5027836;28;20365;-51
2023/04/12 09:04:21;;;;;;;0.30;0.30;;;16.30;98.70;;;;;;5054450;28;20038;-51
2023/04/12 09:06:47;;;;;;;0.10;0.10;;;16.50;98.80;;;;;;5034295;28;20036;-50
2023/04/12 09:09:13;;;;;;;0.32;0.32;;;16.00;98.40;;;;;;5032961;28;20390;-51
2023/04/12 09:11:39;;;;;;;0.20;0.20;;;16.30;98.20;;;;;;5027997;28;20036;-50
2023/04/12 09:14:21;;;;;;;0.47;0.30;;;16.20;97.80;;;;;;5031146;28;20125;-49
2023/04/12 09:16:48;;;;;;;0.10;0.10;;;16.20;98.20;;;;;;5026562;28;20061;-49
2023/04/12 09:19:14;;;;;;;0.20;0.13;;;16.00;97.90;;;;;;5016835;28;20481;-49
2023/04/12 09:21:54;;;;;;;0.38;0.38;;;16.50;97.70;;;;;;5029757;28;20503;-48
2023/04/12 09:24:22;;;;;;;0.52;0.52;;;16.50;97.00;;;;;;5029793;28;20451;-48
2023/04/12 09:27:05;;;;;;;0.38;0.38;;;16.80;96.50;;;;;;5028828;28;20030;-48
2023/04/12 09:29:32;;;;;;;0.30;0.30;;;16.80;96.00;;;;;;5011476;28;20554;-48
2023/04/12 09:32:05;;;;;;;0.40;0.40;;;17.00;96.80;;;;;;5030091;28;20389;-49
2023/04/12 09:34:33;;;;;;;0.30;0.30;;;16.90;97.50;;;;;;5026638;28;20156;-49
2023/04/12 09:36:59;;;;;;;0.30;0.30;;;;;;;;;;5031875;28;20061;-49
2023/04/12 09:39:35;;;;;;;0.30;0.30;;;;;;;;;;5029442;28;20068;-49
2023/04/12 09:42:08;;;;;;;0.40;0.40;;;;;;;;;;5049835;28;20034;-49
2023/04/12 09:44:34;;;;;;;0.40;0.40;;;;;;;;;;5037677;28;20033;-49
2023/04/12 09:47:03;;;;;;;0.30;0.30;;;;;;;;;;5028263;28;20474;-48
2023/04/12 09:49:39;;;;;;;0.40;0.40;;;17.50;95.40;;;;;;5028248;28;20032;-49
2023/04/12 09:52:10;;;;;;;0.40;0.40;;;17.80;96.40;;;;;;5028423;28;20061;-49
2023/04/12 09:54:41;;;;;;;0.30;0.30;;;17.90;96.30;;;;;;5062182;28;21055;-50
2023/04/12 09:57:08;;;;;;;0.38;0.30;;;18.10;95.10;;;;;;5034138;28;20117;-48
2023/04/12 09:59:38;;;;;;;0.10;0.10;;;;;;;;;;5034009;28;20029;-48
2023/04/12 10:02:07;;;;;;;0.40;0.40;;;;;;;;;;5038388;28;20106;-49
2023/04/12 10:04:35;;;;;;;0.32;0.32;;;;;;;;;;5035977;28;20038;-48
2023/04/12 10:07:01;;;;;;;0.20;0.20;;;;;;;;;;5036674;28;20049;-50
2023/04/12 10:09:28;;;;;;;0.47;0.45;;;;;;;;;;5033983;28;20043;-49
2023/04/12 10:11:54;;;;;;;0.28;0.28;;;;;;;;;;5046027;28;20484;-48
2023/04/12 10:14:21;;;;;;;0.40;0.40;;;18.00;94.00;;;;;;5036327;28;20087;-50
2023/04/12 10:16:48;;;;;;;0.57;0.57;;;18.10;94.20;;;;;;5036901;28;20037;-49
2023/04/12 10:19:15;;;;;;;0.57;0.40;;;18.00;93.50;;;;;;5037089;28;20132;-48
2023/04/12 10:21:41;;;;;;;0.45;0.20;;;17.90;91.10;;;;;;5042142;28;20032;-48
2023/04/12 10:24:07;;;;;;;0.20;0.20;;;;;;;;;;5033704;28;20440;-48
2023/04/12 10:26:33;;;;;;;0.40;0.40;;;18.50;99.90;;;;;;5039577;28;20116;-48
2023/04/12 10:29:22;;;;;;;0.30;0.30;;;18.20;88.60;;;;;;5046064;28;20116;-49
2023/04/12 10:31:48;;;;;;;0.10;0.10;;;17.70;89.30;;;;;;5026221;28;20038;-48
2023/04/12 10:34:15;;;;;;;0.28;0.28;;;17.80;90.40;;;;;;5056957;28;20518;-48
2023/04/12 10:37:00;;;;;;;0.77;0.32;;;17.90;89.60;;;;;;5045983;28;20029;-49
2023/04/12 10:39:43;;;;;;;0.20;0.20;;;17.80;90.30;;;;;;5038195;28;20030;-49
2023/04/12 10:42:15;;;;;;;0.20;0.20;;;17.70;89.40;;;;;;5029362;28;20040;-49
2023/04/12 10:44:41;;;;;;;0.15;0.15;;;;;;;;;;5046180;28;20057;-50
2023/04/12 10:47:08;;;;;;;0.20;0.20;;;18.90;95.10;;;;;;5072871;28;20116;-49
2023/04/12 10:49:34;;;;;;;0.30;0.30;;;19.20;89.80;;;;;;5042897;28;20098;-48
2023/04/12 10:52:03;;;;;;;0.22;0.22;;;18.70;87.30;;;;;;5048443;28;20421;-48
2023/04/12 10:54:30;;;;;;;0.32;0.32;;;18.50;87.00;;;;;;5069975;28;20072;-49
2023/04/12 10:56:56;;;;;;;0.15;0.15;;;18.70;89.20;;;;;;5032416;28;20071;-49
2023/04/12 10:59:22;;;;;;;0.40;0.40;;;18.50;91.00;;;;;;5041576;28;20500;-48
2023/04/12 11:02:07;;;;;;;0.28;0.20;;;18.40;90.60;;;;;;5041477;28;20037;-48
2023/04/12 11:04:34;;;;;;;0.55;0.40;;;17.80;90.60;;;;;;5033888;28;20035;-48
2023/04/12 11:07:03;;;;;;;0.30;0.30;;;18.20;91.20;;;;;;5036248;28;20029;-48
2023/04/12 11:09:42;;;;;;;0.30;0.30;;;;;;;;;;5037296;28;20030;-48
2023/04/12 11:12:14;;;;;;;0.30;0.30;;;19.10;90.40;;;;;;5036071;28;20367;-48
2023/04/12 11:14:45;;;;;;;0.77;0.60;;;19.00;89.70;;;;;;5048866;28;20044;-48
2023/04/12 11:17:16;;;;;;;0.57;0.40;;;18.80;86.60;;;;;;5042574;28;20060;-49
2023/04/12 11:19:44;;;;;;;0.30;0.30;;;18.80;88.10;;;;;;5036710;28;20037;-46
2023/04/12 11:22:12;;;;;;;0.43;0.35;;;18.80;89.10;;;;;;5028930;28;20033;-46
2023/04/12 11:24:39;;;;;;;0.20;0.20;;;18.90;88.10;;;;;;5035216;28;20049;-46
2023/04/12 11:27:05;;;;;;;0.50;0.40;;;18.60;89.10;;;;;;5043371;28;20070;-49
2023/04/12 11:29:31;;;;;;;0.50;0.40;;;18.80;90.30;;;;;;5019964;28;20150;-47
2023/04/12 11:31:57;;;;;;;0.65;0.40;;;18.60;90.10;;;;;;5042824;28;20144;-46
2023/04/12 11:34:24;;;;;;;0.45;0.45;;;;;;;;;;5042694;28;20037;-46
2023/04/12 11:36:54;;;;;;;0.38;0.30;;;;;;;;;;5035525;28;20029;-46
2023/04/12 11:39:20;;;;;;;0.63;0.63;;;19.80;91.70;;;;;;5037873;28;20034;-47
2023/04/12 11:41:47;;;;;;;0.50;0.32;;;19.70;86.10;;;;;;5040990;28;20127;-46
2023/04/12 11:44:20;;;;;;;0.30;0.30;;;20.10;91.50;;;;;;5035004;28;20072;-46
2023/04/12 11:46:47;;;;;;;0.50;0.50;;;;;;;;;;5026735;28;20381;-46
2023/04/12 11:49:16;;;;;;;0.38;0.38;;;20.30;83.40;;;;;;5048345;28;20102;-46
2023/04/12 11:51:43;;;;;;;0.57;0.40;;;19.90;84.30;;;;;;5027700;28;20393;-48
2023/04/12 11:54:10;;;;;;;0.30;0.30;;;19.80;85.10;;;;;;5035740;28;20560;-48
2023/04/12 11:56:36;;;;;;;1.95;0.63;;;19.80;83.70;;;;;;5025490;28;20024;-49
2023/04/12 11:59:02;;;;;;;0.17;0.17;;;20.00;84.60;;;;;;5026974;28;20503;-49
2023/04/12 12:01:30;;;;;;;0.38;0.38;;;19.50;84.90;;;;;;5028083;28;20025;-49
2023/04/12 12:03:57;;;;;;;0.15;0.15;;;19.50;84.30;;;;;;5029232;28;20065;-49
2023/04/12 12:06:24;;;;;;;0.82;0.50;;;19.60;83.10;;;;;;5030172;28;20087;-49
2023/04/12 12:08:50;;;;;;;0.10;0.10;;;19.50;86.30;;;;;;5031976;28;20037;-49
2023/04/12 12:11:22;;;;;;;0.10;0.10;;;19.20;84.20;;;;;;5043896;28;20124;-49
2023/04/12 12:13:50;;;;;;;0.45;0.40;;;19.40;85.90;;;;;;5031313;28;20083;-49
2023/04/12 12:16:17;;;;;;;0.20;0.20;;;19.60;85.10;;;;;;5064504;28;20579;-49
2023/04/12 12:18:45;;;;;;;0.40;0.40;;;19.40;86.10;;;;;;5029268;28;20116;-49
2023/04/12 12:21:12;;;;;;;0.30;0.30;;;19.80;84.70;;;;;;5030819;28;20477;-49
2023/04/12 12:23:40;;;;;;;0.15;0.15;;;20.20;82.70;;;;;;5029122;28;20033;-50
2023/04/12 12:26:06;;;;;;;0.55;0.30;;;20.30;87.80;;;;;;5028873;28;20103;-49
2023/04/12 12:28:37;;;;;;;0.50;0.50;;;;;;;;;;5037866;28;20025;-48
2023/04/12 12:31:05;;;;;;;0.20;0.20;;;;;;;;;;5027991;28;20029;-49
2023/04/12 12:33:38;;;;;;;0.30;0.25;;;;;;;;;;5049836;28;20084;-49
2023/04/12 12:36:05;;;;;;;0.25;0.25;;;22.00;90.00;;;;;;5042641;28;20045;-49
2023/04/12 12:38:38;;;;;;;1.13;0.50;;;21.50;83.40;;;;;;5052246;28;20037;-49
2023/04/12 12:41:23;;;;;;;0.32;0.30;;;21.80;84.10;;;;;;5045825;28;20124;-49
2023/04/12 12:43:51;;;;;;;0.10;0.10;;;21.60;82.20;;;;;;5030222;28;20025;-49
2023/04/12 12:46:18;;;;;;;0.80;0.40;;;21.20;82.90;;;;;;5036781;28;20034;-49
2023/04/12 12:48:46;;;;;;;0.47;0.45;;;21.00;78.30;;;;;;5035825;28;20108;-48
2023/04/12 12:51:13;;;;;;;0.43;0.40;;;20.90;79.00;;;;;;5029806;28;20041;-49
2023/04/12 12:53:39;;;;;;;0.30;0.30;;;21.00;80.10;;;;;;5024176;28;20528;-50
2023/04/12 12:56:10;;;;;;;0.38;0.25;;;21.00;76.70;;;;;;5035408;28;20037;-49
2023/04/12 12:58:36;;;;;;;0.20;0.20;;;;;;;;;;5031540;28;20064;-49
2023/04/12 13:01:03;;;;;;;0.47;0.30;;;;;;;;;;5036173;28;20036;-49